National Weather Service Raw Text Product

Displaying AFOS PIL: TAFOTM Received: 2018-01-12 05:43 UTC


356 
FTUS43 KDMX 120543 AAA
TAFOTM
TAF AMD
KOTM 120543Z 1206/1306 33024G30KT P6SM SCT015
      TEMPO 1206/1208 BKN015
     FM121000 33018G24KT P6SM SKC
     FM121300 33015KT P6SM SKC
     FM130300 35014KT P6SM BKN090=